La Salle, IL (61301)

11:00 AM CST on February 06, 2016 (GMT -0600)
Oak Bluff Estates | | Change Station
CLOSE
Current Station
Personal Weather Station
Location: North Utica, IL
Elevation: 607 ft
Nearby Weather Stations

Elev 607 ft 41.35 °N, 89.03 °W | Updated 6 minutes ago

Scattered Clouds
Scattered Clouds
36.1 °F
Feels Like 30 °F
N
7.0
Wind Variable Wind from SW
Gusts 8.0 mph

Today
High -- | Low -- °F
--% Chance of Precip.
Yesterday
High -- | Low -- °F
Precip. -- in
Pressure 30.28 in
Visibility 10.0 miles
Clouds Scattered Clouds 1800 ft
Windchill 30 °F
Dew Point 30 °F
Humidity 78%
Rainfall 0.00 in
Snow Depth Not available.
7:02 AM 5:18 PM
Waning Crescent, 5% visible
METAR KVYS 061615Z AUTO 22005KT 10SM SCT018 02/M02 A3028 RMK AO2 T00151019
Pressure 30.28 in
Visibility 10.0 miles
Clouds Scattered Clouds 1800 ft
Windchill 30 °F
Dew Point 30 °F
Humidity 78%
Rainfall 0.00 in
Snow Depth Not available.
7:02 AM 5:18 PM
Waning Crescent, 5% visible
METAR KVYS 061615Z AUTO 22005KT 10SM SCT018 02/M02 A3028 RMK AO2 T00151019

10-Day Weather Forecast

Almanac

Astronomy

Feb. 06, 2016 Rise Set
Actual Time
Civil Twilight
Nautical Twilight
Astronomical Twilight
Moon
Length of Visible Light
Length of Day
Tomorrow will be .
, % of the Moon is Illuminated

Today's Extremes

State Highs State Lows

Community

WunderPhotos

Upload Photos

1,891,017 photos uploaded!

WunderBlog® & News

Nearby

Air Quality

  Air Quality AQ Index Pollutant
Not available.

Snow Depth

Station Depth Elevation

Earthquake Activity

City Distance Mag. Time & Date
Minimum magnitude displayed is 2.5.

Coastal Water Temperatures

Place Temperature

Stations

Nearby Weather Stations

Station Location Temp. Windchill Dew Point Humidity Wind Precip. Elev Updated Type
                   

Watches & Warnings

There are currently no watches in effect.